createdAt,value
2018-04-06T00:01:39.188Z,4.70
2018-04-06T00:04:06.704Z,4.30
2018-04-06T00:06:34.991Z,4.57
2018-04-06T00:09:03.253Z,6.57
2018-04-06T00:11:30.763Z,6.33
2018-04-06T00:13:58.293Z,5.60
2018-04-06T00:16:25.811Z,3.90
2018-04-06T00:18:53.402Z,4.47
2018-04-06T00:21:21.699Z,4.17
2018-04-06T00:23:49.231Z,4.73
2018-04-06T00:26:17.494Z,5.20
2018-04-06T00:28:45.791Z,4.80
2018-04-06T00:31:13.290Z,5.10
2018-04-06T00:33:40.807Z,5.10
2018-04-06T00:36:08.304Z,4.27
2018-04-06T00:38:35.828Z,6.03
2018-04-06T00:41:03.317Z,4.97
2018-04-06T00:43:30.853Z,5.10
2018-04-06T00:45:58.355Z,5.30
2018-04-06T00:48:25.906Z,5.53
2018-04-06T00:50:53.412Z,7.23
2018-04-06T00:53:32.943Z,6.97
2018-04-06T00:56:01.252Z,5.17
2018-04-06T00:58:28.822Z,4.50
2018-04-06T01:00:56.370Z,7.10
2018-04-06T01:03:23.889Z,5.50
2018-04-06T01:05:52.169Z,5.90
2018-04-06T01:08:20.456Z,7.47
2018-04-06T01:10:47.956Z,5.20
2018-04-06T01:13:15.483Z,5.50
2018-04-06T01:15:42.983Z,6.50
2018-04-06T01:18:10.526Z,4.70
2018-04-06T01:20:38.024Z,4.50
2018-04-06T01:23:06.303Z,4.30
2018-04-06T01:25:33.865Z,5.93
2018-04-06T01:28:02.240Z,5.10
2018-04-06T01:30:29.772Z,5.13
2018-04-06T01:32:57.270Z,5.37
2018-04-06T01:35:24.788Z,5.63
2018-04-06T01:37:52.281Z,5.90
2018-04-06T01:40:19.835Z,7.10
2018-04-06T01:42:47.334Z,5.57
2018-04-06T01:45:14.824Z,5.17
2018-04-06T01:47:42.344Z,5.90
2018-04-06T01:50:09.851Z,5.53
2018-04-06T01:52:38.148Z,5.07
2018-04-06T01:55:05.660Z,6.10
2018-04-06T01:57:33.184Z,6.20
2018-04-06T02:00:00.697Z,6.43
2018-04-06T02:02:29.000Z,5.87
2018-04-06T02:04:56.496Z,7.93
2018-04-06T02:07:24.055Z,4.80
2018-04-06T02:09:51.555Z,5.50
2018-04-06T02:12:19.812Z,5.50
2018-04-06T02:14:47.331Z,5.43
2018-04-06T02:17:14.831Z,6.33
2018-04-06T02:19:43.114Z,5.93
2018-04-06T02:22:11.382Z,5.97
2018-04-06T02:24:39.712Z,5.70
2018-04-06T02:27:07.184Z,5.37
2018-04-06T02:29:34.727Z,6.03
2018-04-06T02:32:02.237Z,5.13
2018-04-06T02:34:30.527Z,5.80
2018-04-06T02:36:58.024Z,6.23
2018-04-06T02:39:25.537Z,5.80
2018-04-06T02:41:53.791Z,5.23
2018-04-06T02:44:21.292Z,5.63
2018-04-06T02:46:48.817Z,6.20
2018-04-06T02:49:17.117Z,5.90
2018-04-06T02:51:44.645Z,5.70
2018-04-06T02:54:12.942Z,7.03
2018-04-06T02:56:40.458Z,5.20
2018-04-06T02:59:07.972Z,6.60
2018-04-06T03:01:35.489Z,6.07
2018-04-06T03:04:02.984Z,6.13
2018-04-06T03:06:30.530Z,6.00
2018-04-06T03:08:58.039Z,7.80
2018-04-06T03:11:25.536Z,6.27
2018-04-06T03:13:53.832Z,7.00
2018-04-06T03:16:21.356Z,7.23
2018-04-06T03:18:49.662Z,5.93
2018-04-06T03:21:17.178Z,5.97
2018-04-06T03:23:44.678Z,5.63
2018-04-06T03:26:12.193Z,5.63
2018-04-06T03:28:39.700Z,6.77
2018-04-06T03:31:07.227Z,5.43
2018-04-06T03:33:35.483Z,6.07
2018-04-06T03:36:03.011Z,5.90
2018-04-06T03:38:30.561Z,5.43
2018-04-06T03:40:58.075Z,6.07
2018-04-06T03:43:26.344Z,6.47
2018-04-06T03:45:54.633Z,6.60
2018-04-06T03:48:22.148Z,8.43
2018-04-06T03:50:49.652Z,7.87
2018-04-06T03:53:17.167Z,5.30
2018-04-06T03:55:44.692Z,8.90
2018-04-06T03:58:12.223Z,8.13
2018-04-06T04:00:40.496Z,5.73
2018-04-06T04:03:08.780Z,5.10
2018-04-06T04:05:36.286Z,6.73
2018-04-06T04:08:03.811Z,6.20
2018-04-06T04:10:31.298Z,7.03
2018-04-06T04:12:58.824Z,6.13
2018-04-06T04:15:26.381Z,7.03
2018-04-06T04:17:53.896Z,5.57
2018-04-06T04:20:21.400Z,6.77
2018-04-06T04:22:48.924Z,5.17
2018-04-06T04:25:17.181Z,6.33
2018-04-06T04:27:44.716Z,6.70
2018-04-06T04:30:12.233Z,5.47
2018-04-06T04:32:39.742Z,5.63
2018-04-06T04:35:07.350Z,5.70
2018-04-06T04:37:34.843Z,9.30
2018-04-06T04:40:03.297Z,5.70
2018-04-06T04:42:30.823Z,7.10
2018-04-06T04:44:59.120Z,9.13
2018-04-06T04:47:26.623Z,7.77
2018-04-06T04:49:54.141Z,6.00
2018-04-06T04:52:21.664Z,10.13
2018-04-06T04:54:49.195Z,6.47
2018-04-06T04:57:16.689Z,7.20
2018-04-06T04:59:44.988Z,7.37
2018-04-06T05:02:12.515Z,8.93
2018-04-06T05:04:40.835Z,6.70
2018-04-06T05:07:08.336Z,9.23
2018-04-06T05:09:35.838Z,6.63
2018-04-06T05:12:03.366Z,5.97
2018-04-06T05:14:31.662Z,9.30
2018-04-06T05:16:59.178Z,10.47
2018-04-06T05:19:26.672Z,7.67
2018-04-06T05:21:54.212Z,7.57
2018-04-06T05:24:22.496Z,6.00
2018-04-06T05:26:50.777Z,6.80
2018-04-06T05:29:19.060Z,9.80
2018-04-06T05:31:47.324Z,6.23
2018-04-06T05:34:15.631Z,8.10
2018-04-06T05:36:43.157Z,7.70
2018-04-06T05:39:11.470Z,9.50
2018-04-06T05:41:38.972Z,7.93
2018-04-06T05:44:06.520Z,10.43
2018-04-06T05:46:34.808Z,11.10
2018-04-06T05:49:02.308Z,8.67
2018-04-06T05:51:29.811Z,8.40
2018-04-06T05:53:57.337Z,10.20
2018-04-06T05:56:24.827Z,6.40
2018-04-06T05:58:52.360Z,7.03
2018-04-06T06:01:19.865Z,7.27
2018-04-06T06:03:48.151Z,9.20
2018-04-06T06:06:15.678Z,6.93
2018-04-06T06:08:43.254Z,7.13
2018-04-06T06:11:11.553Z,13.03
2018-04-06T06:13:39.055Z,9.07
2018-04-06T06:16:06.602Z,10.13
2018-04-06T06:18:34.132Z,11.53
2018-04-06T06:21:01.634Z,11.37
2018-04-06T06:23:29.172Z,11.10
2018-04-06T06:25:56.716Z,11.03
2018-04-06T06:28:24.223Z,10.30
2018-04-06T06:30:51.766Z,10.27
2018-04-06T06:33:19.304Z,10.13
2018-04-06T06:35:46.825Z,10.83
2018-04-06T06:38:14.364Z,13.53
2018-04-06T06:40:42.622Z,10.17
2018-04-06T06:43:10.164Z,9.87
2018-04-06T06:45:37.726Z,10.50
2018-04-06T06:48:05.232Z,14.17
2018-04-06T06:50:32.734Z,10.03
2018-04-06T06:53:00.264Z,10.57
2018-04-06T06:55:27.784Z,11.17
2018-04-06T06:57:55.309Z,11.40
2018-04-06T07:00:22.808Z,11.47
2018-04-06T07:02:51.097Z,11.20
2018-04-06T07:05:18.622Z,10.47
2018-04-06T07:07:46.163Z,9.83
2018-04-06T07:10:13.667Z,11.87
2018-04-06T07:12:41.203Z,10.00
2018-04-06T07:15:09.467Z,10.20
2018-04-06T07:17:37.013Z,11.43
2018-04-06T07:20:04.506Z,10.53
2018-04-06T07:22:32.839Z,11.80
2018-04-06T07:25:00.396Z,14.60
2018-04-06T07:27:27.917Z,9.83
2018-04-06T07:29:55.450Z,11.73
2018-04-06T07:32:23.025Z,12.20
2018-04-06T07:34:50.548Z,11.67
2018-04-06T07:37:18.052Z,13.90
2018-04-06T07:39:45.571Z,13.07
2018-04-06T07:42:13.074Z,13.53
2018-04-06T07:44:40.627Z,9.77
2018-04-06T07:47:08.116Z,8.87
2018-04-06T07:49:35.629Z,12.37
2018-04-06T07:52:03.165Z,10.90
2018-04-06T07:54:31.516Z,11.90
2018-04-06T07:56:59.076Z,11.23
2018-04-06T07:59:26.582Z,10.50
2018-04-06T08:01:54.101Z,10.70
2018-04-06T08:04:21.607Z,9.27
2018-04-06T08:06:49.121Z,9.60
2018-04-06T08:09:16.630Z,10.27
2018-04-06T08:11:44.156Z,10.43
2018-04-06T08:14:12.415Z,9.93
2018-04-06T08:16:39.939Z,9.20
2018-04-06T08:19:07.449Z,9.67
2018-04-06T08:21:35.800Z,9.80
2018-04-06T08:24:03.345Z,10.00
2018-04-06T08:26:30.871Z,11.70
2018-04-06T08:28:58.398Z,9.57
2018-04-06T08:31:26.708Z,8.80
2018-04-06T08:33:54.251Z,9.33
2018-04-06T08:36:21.748Z,8.87
2018-04-06T08:38:49.293Z,8.53
2018-04-06T08:41:16.795Z,8.50
2018-04-06T08:43:45.106Z,8.10
2018-04-06T08:46:12.598Z,8.43
2018-04-06T08:48:40.156Z,7.93
2018-04-06T08:51:07.660Z,10.73
2018-04-06T08:53:35.945Z,8.23
2018-04-06T08:56:03.451Z,8.87
2018-04-06T08:58:31.002Z,7.83
2018-04-06T09:00:58.501Z,9.00
2018-04-06T09:03:26.032Z,7.90
2018-04-06T09:05:53.577Z,8.53
2018-04-06T09:08:21.118Z,9.50
2018-04-06T09:10:48.643Z,8.33
2018-04-06T09:13:16.141Z,7.70
2018-04-06T09:15:43.678Z,9.10
2018-04-06T09:18:11.185Z,8.30
2018-04-06T09:20:38.716Z,10.10
2018-04-06T09:23:06.240Z,7.20
2018-04-06T09:25:33.767Z,6.80
2018-04-06T09:28:02.035Z,8.90
2018-04-06T09:30:29.539Z,7.50
2018-04-06T09:32:57.049Z,7.47
2018-04-06T09:35:25.319Z,6.80
2018-04-06T09:37:52.848Z,7.43
2018-04-06T09:40:20.349Z,6.77
2018-04-06T09:42:48.648Z,7.40
2018-04-06T09:45:16.596Z,6.23
2018-04-06T09:47:44.928Z,6.03
2018-04-06T09:50:12.421Z,4.63
2018-04-06T09:52:40.719Z,6.97
2018-04-06T09:55:08.252Z,6.43
2018-04-06T09:57:36.553Z,4.50
2018-04-06T10:00:04.839Z,5.13
2018-04-06T10:02:38.069Z,6.00
2018-04-06T10:05:05.593Z,5.37
2018-04-06T10:07:33.113Z,4.70
2018-04-06T10:10:00.647Z,6.57
2018-04-06T10:12:28.155Z,5.43
2018-04-06T10:14:55.696Z,5.20
2018-04-06T10:17:23.974Z,5.00
2018-04-06T10:19:52.277Z,5.17
2018-04-06T10:22:19.774Z,4.50
2018-04-06T10:24:47.310Z,4.97
2018-04-06T10:27:14.828Z,5.03
2018-04-06T10:29:43.136Z,5.83
2018-04-06T10:32:10.648Z,6.27
2018-04-06T10:34:38.935Z,5.23
2018-04-06T10:37:07.220Z,4.47
2018-04-06T10:39:35.476Z,5.90
2018-04-06T10:42:03.781Z,5.40
2018-04-06T10:44:31.297Z,4.60
2018-04-06T10:46:58.832Z,4.90
2018-04-06T10:49:26.331Z,5.93
2018-04-06T10:51:54.628Z,5.20
2018-04-06T10:54:22.123Z,4.90
2018-04-06T10:56:49.634Z,4.83
2018-04-06T10:59:17.172Z,4.60
2018-04-06T11:01:44.697Z,4.83
2018-04-06T11:04:12.240Z,5.07
2018-04-06T11:06:39.753Z,5.33
2018-04-06T11:09:08.043Z,4.93
2018-04-06T11:11:35.550Z,5.93
2018-04-06T11:14:03.072Z,5.50
2018-04-06T11:16:30.572Z,6.00
2018-04-06T11:18:58.122Z,5.60
2018-04-06T11:21:25.622Z,5.30
2018-04-06T11:23:53.920Z,5.30
2018-04-06T11:26:21.451Z,6.07
2018-04-06T11:28:49.717Z,4.50
2018-04-06T11:31:17.228Z,5.70
2018-04-06T11:33:44.760Z,5.90
2018-04-06T11:36:12.306Z,5.67
2018-04-06T11:38:39.822Z,5.60
2018-04-06T11:41:07.346Z,6.97
2018-04-06T11:43:34.859Z,6.77
2018-04-06T11:46:02.380Z,6.03
2018-04-06T11:48:29.881Z,5.57
2018-04-06T11:50:58.196Z,6.57
2018-04-06T11:53:25.693Z,7.17
2018-04-06T11:55:53.232Z,7.60
2018-04-06T11:58:20.744Z,5.17
2018-04-06T12:00:49.029Z,6.77
2018-04-06T12:03:16.569Z,5.90
2018-04-06T12:05:44.880Z,6.47
2018-04-06T12:08:12.426Z,7.00
2018-04-06T12:10:39.932Z,7.17
2018-04-06T12:13:07.485Z,6.70
2018-04-06T12:15:34.981Z,6.83
2018-04-06T12:18:03.248Z,6.57
2018-04-06T12:20:31.546Z,6.80
2018-04-06T12:22:59.032Z,6.27
2018-04-06T12:25:26.556Z,7.93
2018-04-06T12:27:54.045Z,6.03
2018-04-06T12:30:21.585Z,11.93
2018-04-06T12:32:49.088Z,4.90
2018-04-06T12:35:16.633Z,5.63
2018-04-06T12:37:44.136Z,6.10
2018-04-06T12:40:12.433Z,5.57
2018-04-06T12:42:39.967Z,6.00
2018-04-06T12:45:08.269Z,6.00
2018-04-06T12:47:35.771Z,6.80
2018-04-06T12:50:04.820Z,6.07
2018-04-06T12:52:32.356Z,6.37
2018-04-06T12:55:00.625Z,4.80
2018-04-06T12:57:28.936Z,5.77
2018-04-06T12:59:56.453Z,6.43
2018-04-06T13:02:24.756Z,5.53
2018-04-06T13:04:52.269Z,7.57
2018-04-06T13:07:19.847Z,7.27
2018-04-06T13:09:48.115Z,6.97
2018-04-06T13:12:15.646Z,8.10
2018-04-06T13:14:43.148Z,6.57
2018-04-06T13:17:11.454Z,6.63
2018-04-06T13:19:38.964Z,6.20
2018-04-06T13:22:06.496Z,6.67
2018-04-06T13:24:34.000Z,5.80
2018-04-06T13:27:01.509Z,7.03
2018-04-06T13:29:29.139Z,7.87
2018-04-06T13:31:56.756Z,6.60
2018-04-06T13:34:25.045Z,7.13
2018-04-06T13:36:53.307Z,7.00
2018-04-06T13:39:21.635Z,7.10
2018-04-06T13:41:49.152Z,7.43
2018-04-06T13:44:17.473Z,6.60
2018-04-06T13:46:44.970Z,8.43
2018-04-06T13:49:12.518Z,7.83
2018-04-06T13:51:40.007Z,6.90
2018-04-06T13:54:08.320Z,8.10
2018-04-06T13:56:35.840Z,7.60
2018-04-06T13:59:04.116Z,8.67
2018-04-06T14:01:32.432Z,8.33
2018-04-06T14:03:59.922Z,6.57
2018-04-06T14:06:27.455Z,6.73
2018-04-06T14:08:54.987Z,8.27
2018-04-06T14:11:22.509Z,6.80
2018-04-06T14:13:50.784Z,7.67
2018-04-06T14:16:19.060Z,6.93
2018-04-06T14:18:47.338Z,7.80
2018-04-06T14:21:15.629Z,5.80
2018-04-06T14:23:43.134Z,8.43
2018-04-06T14:26:10.695Z,9.27
2018-04-06T14:28:38.217Z,8.47
2018-04-06T14:31:05.725Z,8.60
2018-04-06T14:33:33.252Z,7.50
2018-04-06T14:36:00.762Z,8.73
2018-04-06T14:38:29.051Z,7.30
2018-04-06T14:40:56.545Z,8.77
2018-04-06T14:43:24.084Z,7.80
2018-04-06T14:45:51.588Z,7.23
2018-04-06T14:48:20.024Z,6.47
2018-04-06T14:50:47.530Z,7.97
2018-04-06T14:53:15.079Z,6.20
2018-04-06T14:55:43.372Z,6.87
2018-04-06T14:58:11.648Z,9.90
2018-04-06T15:00:39.960Z,6.37
2018-04-06T15:03:07.488Z,11.87
2018-04-06T15:05:35.759Z,8.13
2018-04-06T15:08:04.027Z,7.50
2018-04-06T15:10:31.560Z,6.07
2018-04-06T15:12:59.091Z,6.30
2018-04-06T15:15:26.600Z,5.87
2018-04-06T15:17:54.094Z,7.00
2018-04-06T15:20:21.662Z,7.13
2018-04-06T15:22:49.173Z,6.80
2018-04-06T15:25:16.695Z,7.70
2018-04-06T15:27:44.240Z,7.43
2018-04-06T15:30:11.774Z,7.27
2018-04-06T15:32:40.040Z,7.00
2018-04-06T15:35:08.320Z,6.03
2018-04-06T15:37:36.764Z,7.90
2018-04-06T15:40:04.333Z,5.87
2018-04-06T15:42:31.911Z,7.00
2018-04-06T15:45:00.193Z,9.80
2018-04-06T15:47:27.743Z,8.87
2018-04-06T15:49:56.014Z,6.30
2018-04-06T15:52:24.338Z,5.10
2018-04-06T15:54:51.829Z,6.03
2018-04-06T15:57:19.349Z,7.43
2018-04-06T15:59:46.864Z,6.80
2018-04-06T16:02:15.191Z,8.67
2018-04-06T16:04:42.712Z,6.90
2018-04-06T16:07:10.240Z,13.73
2018-04-06T16:09:37.802Z,8.17
2018-04-06T16:12:05.314Z,10.43
2018-04-06T16:14:32.861Z,7.27
2018-04-06T16:17:00.354Z,6.43
2018-04-06T16:19:27.874Z,8.37
2018-04-06T16:21:55.391Z,7.93
2018-04-06T16:24:22.931Z,5.70
2018-04-06T16:26:50.428Z,5.20
2018-04-06T16:29:18.784Z,6.00
2018-04-06T16:31:46.306Z,4.83
2018-04-06T16:34:13.828Z,5.60
2018-04-06T16:36:41.345Z,5.77
2018-04-06T16:39:09.652Z,6.20
2018-04-06T16:41:37.933Z,6.97
2018-04-06T16:44:05.435Z,7.20
2018-04-06T16:46:32.968Z,7.47
2018-04-06T16:49:00.475Z,6.80
2018-04-06T16:51:28.001Z,5.53
2018-04-06T16:53:55.522Z,6.60
2018-04-06T16:56:23.090Z,6.70
2018-04-06T16:58:50.624Z,6.83
2018-04-06T17:01:18.917Z,7.97
2018-04-06T17:03:46.470Z,6.83
2018-04-06T17:06:13.963Z,7.30
2018-04-06T17:08:41.884Z,7.50
2018-04-06T17:11:10.196Z,7.67
2018-04-06T17:13:37.704Z,7.00
2018-04-06T17:16:05.237Z,6.27
2018-04-06T17:18:32.727Z,7.30
2018-04-06T17:21:01.048Z,7.20
2018-04-06T17:23:28.557Z,7.33
2018-04-06T17:25:56.844Z,7.20
2018-04-06T17:28:24.392Z,10.50
2018-04-06T17:30:52.677Z,6.10
2018-04-06T17:33:20.987Z,7.80
2018-04-06T17:35:48.491Z,7.23
2018-04-06T17:38:16.052Z,7.63
2018-04-06T17:40:43.579Z,8.30
2018-04-06T17:43:11.112Z,8.50
2018-04-06T17:45:38.625Z,6.33
2018-04-06T17:48:06.191Z,8.30
2018-04-06T17:50:34.473Z,8.20
2018-04-06T17:53:02.806Z,7.43
2018-04-06T17:55:30.340Z,7.37
2018-04-06T17:57:58.794Z,7.20
2018-04-06T18:00:27.578Z,6.87
2018-04-06T18:02:55.903Z,7.50
2018-04-06T18:05:23.438Z,12.53
2018-04-06T18:07:50.968Z,7.67
2018-04-06T18:10:19.273Z,8.10
2018-04-06T18:12:46.783Z,8.30
2018-04-06T18:15:15.072Z,6.97
2018-04-06T18:17:42.597Z,6.00
2018-04-06T18:20:10.131Z,7.77
2018-04-06T18:22:37.666Z,6.83
2018-04-06T18:25:05.196Z,6.70
2018-04-06T18:27:32.719Z,7.30
2018-04-06T18:30:00.250Z,9.50
2018-04-06T18:32:27.758Z,7.97
2018-04-06T18:34:55.284Z,7.80
2018-04-06T18:37:22.836Z,7.57
2018-04-06T18:39:50.337Z,7.10
2018-04-06T18:42:17.860Z,9.37
2018-04-06T18:44:45.468Z,7.23
2018-04-06T18:47:12.951Z,7.10
2018-04-06T18:49:40.468Z,9.37
2018-04-06T18:52:08.056Z,8.23
2018-04-06T18:54:35.590Z,7.80
2018-04-06T18:57:03.097Z,7.83
2018-04-06T18:59:30.779Z,8.10
2018-04-06T19:01:58.350Z,8.43
2018-04-06T19:04:25.866Z,8.97
2018-04-06T19:06:53.399Z,8.00
2018-04-06T19:09:20.920Z,11.07
2018-04-06T19:11:48.431Z,8.80
2018-04-06T19:14:15.966Z,8.63
2018-04-06T19:16:44.240Z,8.57
2018-04-06T19:19:12.513Z,9.17
2018-04-06T19:21:40.825Z,10.97
2018-04-06T19:24:08.540Z,10.20
2018-04-06T19:26:36.861Z,9.43
2018-04-06T19:29:04.412Z,9.90
2018-04-06T19:31:31.923Z,9.70
2018-04-06T19:33:59.497Z,9.67
2018-04-06T19:36:27.861Z,9.23
2018-04-06T19:38:55.338Z,8.33
2018-04-06T19:41:23.623Z,8.20
2018-04-06T19:43:51.175Z,8.20
2018-04-06T19:46:19.485Z,8.50
2018-04-06T19:48:46.984Z,7.80
2018-04-06T19:51:16.061Z,8.47
2018-04-06T19:53:43.560Z,8.67
2018-04-06T19:56:11.084Z,9.57
2018-04-06T19:58:38.649Z,8.60
2018-04-06T20:01:06.182Z,9.17
2018-04-06T20:03:33.708Z,6.43
2018-04-06T20:06:01.252Z,9.07
2018-04-06T20:08:29.573Z,7.57
2018-04-06T20:10:57.070Z,7.40
2018-04-06T20:13:24.600Z,8.33
2018-04-06T20:15:52.104Z,6.93
2018-04-06T20:18:20.410Z,7.80
2018-04-06T20:20:47.918Z,9.00
2018-04-06T20:23:15.452Z,10.00
2018-04-06T20:25:42.966Z,8.40
2018-04-06T20:28:10.476Z,10.00
2018-04-06T20:30:38.258Z,9.43
2018-04-06T20:33:05.774Z,8.83
2018-04-06T20:35:33.366Z,8.37
2018-04-06T20:38:00.888Z,8.80
2018-04-06T20:40:28.441Z,10.03
2018-04-06T20:42:55.962Z,8.83
2018-04-06T20:45:24.272Z,9.50
2018-04-06T20:47:51.774Z,8.87
2018-04-06T20:50:19.294Z,10.17
2018-04-06T20:52:46.803Z,9.23
2018-04-06T20:55:15.105Z,8.60
2018-04-06T20:57:42.620Z,10.33
2018-04-06T21:00:10.134Z,8.33
2018-04-06T21:02:37.670Z,8.93
2018-04-06T21:05:05.192Z,9.03
2018-04-06T21:07:32.754Z,10.67
2018-04-06T21:10:00.255Z,8.73
2018-04-06T21:12:27.786Z,9.33
2018-04-06T21:14:56.049Z,8.03
2018-04-06T21:17:23.581Z,8.57
2018-04-06T21:19:51.121Z,9.37
2018-04-06T21:22:18.680Z,8.80
2018-04-06T21:24:46.195Z,8.70
2018-04-06T21:27:14.507Z,8.97
2018-04-06T21:29:42.036Z,9.10
2018-04-06T21:32:10.345Z,8.90
2018-04-06T21:34:37.917Z,10.00
2018-04-06T21:37:05.419Z,8.83
2018-04-06T21:39:33.023Z,9.50
2018-04-06T21:42:00.535Z,10.60
2018-04-06T21:44:28.836Z,10.57
2018-04-06T21:46:56.354Z,10.20
2018-04-06T21:49:24.654Z,10.27
2018-04-06T21:51:52.975Z,9.50
2018-04-06T21:54:20.501Z,9.03
2018-04-06T21:56:48.024Z,9.03
2018-04-06T21:59:15.555Z,9.73
2018-04-06T22:01:43.060Z,9.43
2018-04-06T22:04:11.359Z,9.07
2018-04-06T22:06:38.877Z,9.40
2018-04-06T22:09:06.378Z,9.83
2018-04-06T22:11:33.934Z,9.30
2018-04-06T22:14:01.426Z,9.00
2018-04-06T22:16:28.963Z,9.10
2018-04-06T22:18:56.481Z,10.30
2018-04-06T22:21:24.793Z,10.63
2018-04-06T22:23:52.320Z,9.00
2018-04-06T22:26:19.833Z,9.80
2018-04-06T22:28:47.358Z,9.33
2018-04-06T22:31:14.900Z,10.03
2018-04-06T22:33:42.412Z,9.77
2018-04-06T22:36:09.939Z,10.10
2018-04-06T22:38:37.437Z,10.50
2018-04-06T22:41:04.975Z,9.90
2018-04-06T22:43:32.515Z,10.50
2018-04-06T22:46:00.031Z,10.67
2018-04-06T22:48:28.333Z,10.00
2018-04-06T22:50:55.843Z,9.57
2018-04-06T22:53:24.900Z,10.10
2018-04-06T22:55:52.414Z,10.63
2018-04-06T22:58:20.689Z,10.13
2018-04-06T23:00:48.979Z,10.20
2018-04-06T23:03:16.495Z,10.23
2018-04-06T23:05:44.787Z,9.50
2018-04-06T23:08:12.327Z,10.90
2018-04-06T23:10:39.845Z,10.10
2018-04-06T23:13:07.363Z,8.77
2018-04-06T23:15:34.903Z,9.83
2018-04-06T23:18:02.426Z,11.40
2018-04-06T23:20:29.949Z,9.87
2018-04-06T23:22:57.496Z,9.93
2018-04-06T23:25:25.811Z,10.47
2018-04-06T23:27:53.323Z,10.30
2018-04-06T23:30:20.841Z,9.23
2018-04-06T23:32:48.410Z,11.43
2018-04-06T23:35:15.917Z,10.43
2018-04-06T23:37:43.453Z,11.97
2018-04-06T23:40:10.967Z,10.43
2018-04-06T23:42:38.522Z,10.37
2018-04-06T23:45:06.064Z,10.53
2018-04-06T23:47:33.592Z,10.47
2018-04-06T23:50:01.087Z,10.93
2018-04-06T23:52:28.625Z,10.27
2018-04-06T23:54:56.155Z,9.93
2018-04-06T23:57:24.435Z,9.63
2018-04-06T23:59:51.971Z,9.97
